Terminal Aerodrome Forecast
Issued by NWS Wilmington, NC

Home | Current Version | Previous Version | Text Only | Print | Product List | Glossary On
Versions: 1 2 3 4 5 6 7 8 9 10 11 12 13 14 15 16 17
000
FTUS42 KILM 282300
TAFFLO
TAF
KFLO 282320Z 0100/0124 04010KT P6SM BKN035
     FM010700 04008KT P6SM -RA BKN015 OVC070
      TEMPO 0109/0113 5SM -FZRA
     FM011500 05006KT 6SM -RA BKN006 OVC012=

USA.gov is the U.S. government's official web portal to all federal, state and local government web resources and services.